LIME Airport Information

Runway Information
Runway 10 Length 9636 ft width 148 ft
Elevation 779 ft Threshold 312 ft Heading 105
Runway 28 Length 9636 ft Width 148 ft
Elevation 754 ft Threshold 427 ft Heading 285
Runway 12 Length 2552 ft width 59 ft
Elevation 782 ft Threshold 210 ft Heading 121
Runway 30 Length 2552 ft Width 59 ft
Elevation 782 ft Threshold 328 ft Heading 301
Airport Frequencies
Type APP Name MILANO APP Frequency 126.75 MHZ
Type ATIS Name ATIS Frequency 112.6 MHZ
Type GND Name ORIO GND Frequency 120.5 MHZ
Type TWR Name ORIO TWR Frequency 126.5 MHZ
Airport Navaids
Type VOR-DME Name Orio Al Serio Frequency 112600 KHZ
Type NDB Name Orio Al Serio Frequency 377 KHZ
Airport Weather Information & NOTAM
ADDS - METARS form results

(1311 UTC 16 April 2021)
Data provider http://aviationweather.gov/metar/data/
 
METAR text: LIME 161250Z VRB02KT 9999 SCT055 12/M02 Q1019 NOSIG
Conditions at: LIME (BERGAMO/ORIO SER, IT) observed 1250 UTC 16 April 2021
Temperature: 12.0°C (54°F)
Dewpoint: -2.0°C (28°F) [RH = 38%]
Pressure (altimeter): 30.09 inches Hg (1019.0 mb)
Winds: variable direction winds at 2 MPH (2 knots; 1.0 m/s)
Visibility: 6 or more miles (10+ km)
Ceiling: at least 12,000 feet AGL
Clouds: scattered clouds at 5500 feet AGL
Weather: no significant weather observed at this time

METAR text: LIME 161220Z 15007KT 110V240 9999 SCT050 13/M02 Q1019 NOSIG
Conditions at: LIME (BERGAMO/ORIO SER, IT) observed 1220 UTC 16 April 2021
Temperature: 13.0°C (55°F)
Dewpoint: -2.0°C (28°F) [RH = 35%]
Pressure (altimeter): 30.09 inches Hg (1019.0 mb)
Winds: from the SSE (150 degrees) at 8 MPH (7 knots; 3.6 m/s)
Visibility: 6 or more miles (10+ km)
Ceiling: at least 12,000 feet AGL
Clouds: scattered clouds at 5000 feet AGL
Weather: no significant weather observed at this time

Forecast for: LIME (BERGAMO/ORIO SER, IT)
Text: TAF LIME 161100Z 1612/1712 15010KT 9999 SCT030
Forecast period: 1200 to 1700 UTC 16 April 2021
Forecast type: FROM: standard forecast or significant change
Winds: from the SSE (150 degrees) at 12 MPH (10 knots; 5.1 m/s)
Visibility: 6 or more miles (10+ km)
Ceiling: at least 12,000 feet AGL
Clouds: scattered clouds at 3000 feet AGL
Weather: no significant weather forecast for this period
Text: BECMG 1617/1619 VRB05KT
Forecast period: 1700 UTC 16 April 2021 to 1200 UTC 17 April 2021
Forecast type: BECOMING: Conditions expected to become as follows by 1900 UTC 16 April 2021
Winds: variable direction winds at 6 MPH (5 knots; 2.6 m/s)
Visibility: 6 or more miles (10+ km)
Ceiling: at least 12,000 feet AGL
Clouds: scattered clouds at 3000 feet AGL
Weather: no significant weather forecast for this period